Sturgeon Bay, WI (54235)

5:22 AM CDT on July 24, 2016 (GMT -0500)
MARITIME | | Change Station

Elev 577 ft 41.60 °N, 87.10 °W | Updated 1 day ago

Thunderstorm
Thunderstorm
74 °F
Feels Like 74 °F
N
11
Wind Variable Wind from SSW
Gusts 19 mph

Today
High -- | Low -- °F
--% Chance of Precip.
Yesterday
High -- | Low -- °F
Precip. -- in
Pressure 29.87 in
Visibility 10.0 miles
Clouds Mostly Cloudy 4100 ft
Overcast 6000 ft
Dew Point 72 °F
Humidity 93%
Rainfall in
Snow Depth Not available.
5:27 AM 8:24 PM
Waning Gibbous, 77% visible
METAR KSUE 240956Z AUTO 17006KT 10SM BKN041 OVC060 21/20 A2984 RMK AO2 SLP114 T02060200
Pressure 29.87 in
Visibility 10.0 miles
Clouds Mostly Cloudy 4100 ft
Overcast 6000 ft
Dew Point 72 °F
Humidity 93%
Rainfall in
Snow Depth Not available.
5:27 AM 8:24 PM
Waning Gibbous, 77% visible
METAR KSUE 240956Z AUTO 17006KT 10SM BKN041 OVC060 21/20 A2984 RMK AO2 SLP114 T02060200

10-Day Weather Forecast

Almanac

Astronomy

Jul. 24, 2016 Rise Set
Actual Time
Civil Twilight
Nautical Twilight
Astronomical Twilight
Moon
Length of Visible Light
Length of Day
Tomorrow will be .
, % of the Moon is Illuminated

Today's Extremes

State Highs State Lows

Community

WunderPhotos

Upload Photos

1,927,039 photos uploaded!

WunderBlog® & News

Nearby

Air Quality

  Air Quality AQ Index Pollutant
Not available.

Snow Depth

Station Depth Elevation

Earthquake Activity

City Distance Mag. Time & Date
Minimum magnitude displayed is 2.5.

Coastal Water Temperatures

Place Temperature

Stations

Nearby Weather Stations

Station Location Temp. Windchill Dew Point Humidity Wind Precip. Elev Updated Type
                   

Watches & Warnings

There are currently no watches in effect.